Time;durP1;ratioP1;P1;durP2;ratioP2;P2;SDS_P1;SDS_P2;PMS_P1;PMS_P2;Temp;Humidity;BMP_temperature;BMP_pressure;BME280_temperature;BME280_humidity;BME280_pressure;Samples;Min_cycle;Max_cycle;Signal;HPM_P1;HPM_P2
2022/07/24 00:01:36;;;;;;;6.13;5.05;;;16.10;99.90;;;;;;5116947;28;20512;-65
2022/07/24 00:04:03;;;;;;;7.55;5.35;;;16.20;99.90;;;;;;5116824;28;20194;-65
2022/07/24 00:06:29;;;;;;;6.60;4.85;;;16.20;99.90;;;;;;5117546;28;20172;-65
2022/07/24 00:08:55;;;;;;;7.93;5.72;;;16.20;99.90;;;;;;5117277;28;20539;-65
2022/07/24 00:11:20;;;;;;;6.57;5.30;;;16.20;99.90;;;;;;5116941;28;20168;-65
2022/07/24 00:13:46;;;;;;;8.02;5.13;;;16.10;99.90;;;;;;5116781;28;20199;-65
2022/07/24 00:16:12;;;;;;;8.23;5.53;;;16.10;99.90;;;;;;5116765;28;20177;-65
2022/07/24 00:18:38;;;;;;;8.60;5.80;;;16.10;99.90;;;;;;5116799;28;20263;-65
2022/07/24 00:21:04;;;;;;;7.25;5.22;;;16.10;99.90;;;;;;5117893;28;20164;-65
2022/07/24 00:23:29;;;;;;;8.55;5.32;;;16.00;99.90;;;;;;5117447;28;20197;-65
2022/07/24 00:25:55;;;;;;;6.55;5.60;;;16.10;99.90;;;;;;5117561;28;20568;-64
2022/07/24 00:28:21;;;;;;;6.18;5.32;;;16.10;99.90;;;;;;5118023;28;20176;-65
2022/07/24 00:30:47;;;;;;;7.32;5.65;;;16.10;99.90;;;;;;5116744;28;20173;-65
2022/07/24 00:33:13;;;;;;;6.93;5.22;;;16.00;99.90;;;;;;5116539;28;20227;-64
2022/07/24 00:35:38;;;;;;;7.03;5.80;;;15.90;99.90;;;;;;5117366;28;20212;-65
2022/07/24 00:38:04;;;;;;;7.13;5.85;;;15.90;99.90;;;;;;5116583;28;20534;-65
2022/07/24 00:40:31;;;;;;;7.82;5.47;;;15.90;99.90;;;;;;5116758;28;20196;-65
2022/07/24 00:42:57;;;;;;;6.63;5.68;;;15.70;99.90;;;;;;5116233;28;20195;-65
2022/07/24 00:45:24;;;;;;;10.75;5.53;;;15.60;99.90;;;;;;5115252;28;20172;-65
2022/07/24 00:47:51;;;;;;;7.30;5.43;;;15.60;99.90;;;;;;5116747;28;20175;-65
2022/07/24 00:50:17;;;;;;;9.52;5.45;;;15.60;99.90;;;;;;5117512;28;20172;-65
2022/07/24 00:52:44;;;;;;;8.43;5.75;;;15.60;99.90;;;;;;5116511;28;20199;-66
2022/07/24 00:55:11;;;;;;;8.88;5.45;;;15.60;99.90;;;;;;5116789;28;20192;-67
2022/07/24 00:57:37;;;;;;;10.90;6.40;;;15.60;99.90;;;;;;5114877;28;20712;-67
2022/07/24 01:00:07;;;;;;;9.65;5.80;;;15.60;99.90;;;;;;5114382;28;20204;-67
2022/07/24 01:02:34;;;;;;;9.18;5.97;;;15.60;99.90;;;;;;5116355;28;20191;-69
2022/07/24 01:05:00;;;;;;;10.30;6.47;;;15.60;99.90;;;;;;5115860;28;20700;-69
2022/07/24 01:07:26;;;;;;;8.88;5.75;;;15.60;99.90;;;;;;5114717;28;20225;-69
2022/07/24 01:09:52;;;;;;;7.22;6.13;;;15.60;99.90;;;;;;5115982;28;20183;-69
2022/07/24 01:12:18;;;;;;;8.82;5.97;;;15.60;99.90;;;;;;5115744;28;20192;-69
2022/07/24 01:14:44;;;;;;;11.45;6.88;;;15.60;99.90;;;;;;5115358;28;20176;-68
2022/07/24 01:17:11;;;;;;;9.70;7.32;;;15.60;99.90;;;;;;5114350;28;20180;-69
2022/07/24 01:19:37;;;;;;;9.75;7.30;;;15.50;99.90;;;;;;5115427;28;20287;-69
2022/07/24 01:22:03;;;;;;;10.23;7.40;;;15.50;99.90;;;;;;5114389;28;20269;-69
2022/07/24 01:24:30;;;;;;;11.55;7.78;;;15.50;99.90;;;;;;5115461;28;20548;-69
2022/07/24 01:26:56;;;;;;;14.75;8.50;;;15.50;99.90;;;;;;5114439;28;20206;-69
2022/07/24 01:29:25;;;;;;;12.75;8.27;;;15.50;99.90;;;;;;5116362;28;20168;-70
2022/07/24 01:31:55;;;;;;;11.73;8.20;;;15.50;99.90;;;;;;5117822;27;20176;-68
2022/07/24 01:34:21;;;;;;;10.07;8.45;;;15.40;99.90;;;;;;5117110;28;20544;-66
2022/07/24 01:36:47;;;;;;;11.43;8.50;;;15.40;99.90;;;;;;5105267;28;20180;-67
2022/07/24 01:39:13;;;;;;;8.45;6.32;;;15.40;99.90;;;;;;5102128;28;20208;-66
2022/07/24 01:41:39;;;;;;;10.30;6.20;;;15.30;99.90;;;;;;5105257;28;20256;-68
2022/07/24 01:44:04;;;;;;;8.60;6.57;;;15.20;99.90;;;;;;5097260;28;20215;-69
2022/07/24 01:46:30;;;;;;;8.95;6.40;;;15.10;99.90;;;;;;5099437;28;20208;-68
2022/07/24 01:48:56;;;;;;;9.20;5.85;;;15.10;99.90;;;;;;5103588;28;20181;-68
2022/07/24 01:51:22;;;;;;;10.52;6.15;;;15.00;99.90;;;;;;5101885;28;20194;-68
2022/07/24 01:53:47;;;;;;;10.57;6.00;;;15.00;99.90;;;;;;5103652;28;20202;-69
2022/07/24 01:56:13;;;;;;;7.07;5.95;;;15.00;99.90;;;;;;5094627;28;20215;-68
2022/07/24 01:58:39;;;;;;;8.13;5.70;;;15.00;99.90;;;;;;5094270;28;20173;-69
2022/07/24 02:01:05;;;;;;;9.20;5.75;;;14.90;99.90;;;;;;5094304;28;20630;-68
2022/07/24 02:03:31;;;;;;;8.05;5.15;;;14.80;99.90;;;;;;5094489;28;20712;-69
2022/07/24 02:05:57;;;;;;;7.55;5.80;;;14.80;99.90;;;;;;5094375;28;20173;-69
2022/07/24 02:08:23;;;;;;;8.90;5.78;;;14.80;99.90;;;;;;5098538;28;20192;-68
2022/07/24 02:10:48;;;;;;;9.02;6.00;;;14.80;99.90;;;;;;5114608;28;20564;-68
2022/07/24 02:13:14;;;;;;;9.13;6.20;;;14.90;99.90;;;;;;5114567;28;20226;-69
2022/07/24 02:15:40;;;;;;;9.98;6.32;;;14.80;99.90;;;;;;5114294;28;20156;-68
2022/07/24 02:18:06;;;;;;;7.78;5.10;;;14.90;99.90;;;;;;5114259;28;20192;-68
2022/07/24 02:20:32;;;;;;;6.85;5.50;;;14.90;99.90;;;;;;5114630;28;20204;-68
2022/07/24 02:22:57;;;;;;;8.85;6.82;;;14.90;99.90;;;;;;5110110;28;20193;-68
2022/07/24 02:25:23;;;;;;;9.80;6.40;;;14.90;99.90;;;;;;5094121;28;20242;-67
2022/07/24 02:27:49;;;;;;;12.77;7.28;;;14.80;99.90;;;;;;5114366;28;20164;-68
2022/07/24 02:30:19;;;;;;;10.93;7.05;;;14.90;99.90;;;;;;5114069;28;20176;-69
2022/07/24 02:32:44;;;;;;;9.55;7.00;;;14.90;99.90;;;;;;5114444;28;20196;-68
2022/07/24 02:35:11;;;;;;;11.45;7.07;;;14.90;99.90;;;;;;5114334;28;20230;-69
2022/07/24 02:37:41;;;;;;;8.05;6.68;;;14.90;99.90;;;;;;5114239;28;20329;-68
2022/07/24 02:40:09;;;;;;;12.38;7.70;;;14.90;99.90;;;;;;5114271;28;20188;-68
2022/07/24 02:42:35;;;;;;;11.80;8.15;;;14.80;99.90;;;;;;5114531;28;20188;-68
2022/07/24 02:45:01;;;;;;;13.90;7.82;;;14.80;99.90;;;;;;5114708;28;20177;-68
2022/07/24 02:47:27;;;;;;;11.32;8.43;;;14.80;99.90;;;;;;5114778;28;20195;-68
2022/07/24 02:49:53;;;;;;;10.20;8.32;;;14.80;99.90;;;;;;5114662;28;20617;-68
2022/07/24 02:52:19;;;;;;;9.93;7.93;;;14.80;99.90;;;;;;5114523;28;20188;-68
2022/07/24 02:54:44;;;;;;;10.25;7.32;;;14.70;99.90;;;;;;5094679;28;20646;-68
2022/07/24 02:57:10;;;;;;;11.43;7.75;;;14.70;99.90;;;;;;5094228;28;20175;-68
2022/07/24 02:59:36;;;;;;;9.27;7.32;;;14.60;99.90;;;;;;5093423;28;20539;-69
2022/07/24 03:02:02;;;;;;;13.50;7.53;;;14.60;99.90;;;;;;5100487;28;20720;-68
2022/07/24 03:04:28;;;;;;;10.38;6.85;;;14.60;99.90;;;;;;5114339;28;20172;-68
2022/07/24 03:06:53;;;;;;;9.13;7.25;;;14.60;99.90;;;;;;5113867;28;20172;-69
2022/07/24 03:09:19;;;;;;;11.35;8.23;;;14.60;99.90;;;;;;5116627;28;20172;-68
2022/07/24 03:11:45;;;;;;;12.60;7.32;;;14.60;99.90;;;;;;5118266;28;20227;-68
2022/07/24 03:14:10;;;;;;;8.43;6.90;;;14.60;99.90;;;;;;5115767;28;20305;-68
2022/07/24 03:16:37;;;;;;;8.90;6.78;;;14.60;99.90;;;;;;5107937;27;20177;-68
2022/07/24 03:19:03;;;;;;;11.73;7.25;;;14.50;99.90;;;;;;5097191;28;20208;-68
2022/07/24 03:21:28;;;;;;;12.32;7.75;;;14.50;99.90;;;;;;5097524;28;20169;-68
2022/07/24 03:23:54;;;;;;;10.95;7.97;;;14.40;99.90;;;;;;5097256;28;20269;-69
2022/07/24 03:26:20;;;;;;;11.68;8.27;;;14.40;99.90;;;;;;5097431;28;20169;-68
2022/07/24 03:28:46;;;;;;;10.15;7.97;;;14.50;99.90;;;;;;5097336;28;20180;-68
2022/07/24 03:31:12;;;;;;;9.95;7.43;;;14.50;99.90;;;;;;5095746;28;20645;-68
2022/07/24 03:33:38;;;;;;;9.80;7.82;;;14.40;99.90;;;;;;5095872;28;20199;-69
2022/07/24 03:36:04;;;;;;;14.68;7.72;;;14.30;99.90;;;;;;5097237;28;20256;-68
2022/07/24 03:38:29;;;;;;;11.63;8.05;;;14.30;99.90;;;;;;5097294;28;20181;-68
2022/07/24 03:40:55;;;;;;;10.18;7.75;;;14.40;99.90;;;;;;5096100;28;20177;-68
2022/07/24 03:43:21;;;;;;;9.90;8.05;;;14.30;99.90;;;;;;5096986;28;20201;-68
2022/07/24 03:45:46;;;;;;;11.10;8.05;;;14.30;99.90;;;;;;5096777;28;20200;-68
2022/07/24 03:48:12;;;;;;;11.40;8.18;;;14.30;99.90;;;;;;5096851;28;20251;-68
2022/07/24 03:50:38;;;;;;;10.57;8.60;;;14.30;99.90;;;;;;5096869;28;20251;-68
2022/07/24 03:53:04;;;;;;;13.18;8.77;;;14.40;99.90;;;;;;5096922;28;20225;-69
2022/07/24 03:55:30;;;;;;;12.13;8.45;;;14.40;99.90;;;;;;5097190;28;20204;-68
2022/07/24 03:57:55;;;;;;;11.20;8.00;;;14.40;99.90;;;;;;5096958;28;20279;-68
2022/07/24 04:00:21;;;;;;;15.65;8.13;;;14.40;99.90;;;;;;5096495;28;20697;-68
2022/07/24 04:02:47;;;;;;;15.32;9.02;;;14.40;99.90;;;;;;5096676;28;20609;-68
2022/07/24 04:05:13;;;;;;;12.63;8.95;;;14.30;99.90;;;;;;5096601;28;20626;-69
2022/07/24 04:07:39;;;;;;;13.45;9.73;;;14.40;99.90;;;;;;5096550;28;20169;-68
2022/07/24 04:10:06;;;;;;;11.55;8.18;;;14.40;99.90;;;;;;5096827;28;20165;-68
2022/07/24 04:12:32;;;;;;;11.07;8.38;;;14.40;99.90;;;;;;5096140;28;20258;-68
2022/07/24 04:14:58;;;;;;;11.85;8.30;;;14.40;99.90;;;;;;5096186;28;20252;-68
2022/07/24 04:17:24;;;;;;;13.45;8.40;;;14.40;99.90;;;;;;5111452;28;20200;-69
2022/07/24 04:19:50;;;;;;;10.90;8.40;;;14.40;99.90;;;;;;5110484;28;20197;-68
2022/07/24 04:22:16;;;;;;;11.55;7.95;;;14.40;99.90;;;;;;5095925;28;20674;-68
2022/07/24 04:24:42;;;;;;;10.35;7.07;;;14.40;99.90;;;;;;5098837;28;20216;-69
2022/07/24 04:27:08;;;;;;;13.63;7.93;;;14.40;99.90;;;;;;5097240;28;20223;-68
2022/07/24 04:29:33;;;;;;;10.30;7.13;;;14.40;99.90;;;;;;5096250;28;20203;-68
2022/07/24 04:31:59;;;;;;;9.85;7.13;;;14.50;99.90;;;;;;5095516;28;20223;-68
2022/07/24 04:34:25;;;;;;;9.45;6.93;;;14.50;99.90;;;;;;5094859;28;20169;-64
2022/07/24 04:36:51;;;;;;;11.50;7.63;;;14.50;99.90;;;;;;5096025;28;20534;-64
2022/07/24 04:39:17;;;;;;;9.27;6.78;;;14.50;99.90;;;;;;5095637;28;20710;-64
2022/07/24 04:41:42;;;;;;;9.07;7.05;;;14.50;99.90;;;;;;5095837;28;20169;-66
2022/07/24 04:44:08;;;;;;;9.95;6.95;;;14.50;99.90;;;;;;5095690;28;20657;-64
2022/07/24 04:46:34;;;;;;;9.40;7.25;;;14.50;99.90;;;;;;5095279;28;20204;-64
2022/07/24 04:49:00;;;;;;;9.35;7.40;;;14.60;99.90;;;;;;5096094;28;20177;-64
2022/07/24 04:51:25;;;;;;;8.70;6.72;;;14.70;99.90;;;;;;5095789;28;20239;-64
2022/07/24 04:53:54;;;;;;;11.93;6.72;;;14.70;99.90;;;;;;5108947;28;20205;-64
2022/07/24 04:56:20;;;;;;;11.05;6.97;;;14.70;99.90;;;;;;5115719;28;20263;-64
2022/07/24 04:58:47;;;;;;;8.32;6.57;;;14.70;99.90;;;;;;5115643;27;20255;-64
2022/07/24 05:01:13;;;;;;;8.35;7.40;;;14.70;99.90;;;;;;5115678;28;20200;-64
2022/07/24 05:03:39;;;;;;;9.52;7.22;;;14.80;99.90;;;;;;5115594;28;20188;-64
2022/07/24 05:06:05;;;;;;;10.35;7.70;;;14.80;99.90;;;;;;5116158;28;20179;-64
2022/07/24 05:08:31;;;;;;;13.80;9.48;;;14.80;99.90;;;;;;5115527;28;20170;-64
2022/07/24 05:10:57;;;;;;;11.93;9.63;;;14.90;99.90;;;;;;5115581;27;20173;-64
2022/07/24 05:13:22;;;;;;;13.63;8.05;;;15.00;99.90;;;;;;5115488;28;20188;-64
2022/07/24 05:15:48;;;;;;;12.32;8.70;;;15.00;99.90;;;;;;5115230;28;20169;-64
2022/07/24 05:18:14;;;;;;;10.40;7.90;;;15.10;99.90;;;;;;5115193;28;20219;-64
2022/07/24 05:20:40;;;;;;;9.35;7.68;;;15.10;99.90;;;;;;5115548;28;20648;-64
2022/07/24 05:23:05;;;;;;;10.68;8.23;;;15.20;99.90;;;;;;5115289;28;20593;-64
2022/07/24 05:25:31;;;;;;;12.77;8.05;;;15.30;99.90;;;;;;5115206;28;20178;-64
2022/07/24 05:27:57;;;;;;;11.05;8.07;;;15.30;99.90;;;;;;5115071;28;20168;-64
2022/07/24 05:30:23;;;;;;;11.35;7.28;;;15.40;99.90;;;;;;5114888;28;20180;-65
2022/07/24 05:32:49;;;;;;;11.07;8.20;;;15.40;99.90;;;;;;5114593;28;20195;-64
2022/07/24 05:35:14;;;;;;;12.15;7.72;;;15.50;99.90;;;;;;5115140;28;20181;-64
2022/07/24 05:37:40;;;;;;;11.07;7.53;;;15.60;99.90;;;;;;5114901;28;20195;-64
2022/07/24 05:40:06;;;;;;;10.25;8.25;;;15.70;99.90;;;;;;5114826;28;20206;-64
2022/07/24 05:42:32;;;;;;;9.07;8.10;;;15.80;99.90;;;;;;5114749;28;20613;-64
2022/07/24 05:44:58;;;;;;;9.70;8.60;;;15.90;99.90;;;;;;5114783;28;20264;-64
2022/07/24 05:47:24;;;;;;;10.50;8.15;;;15.90;99.90;;;;;;5114641;28;20244;-64
2022/07/24 05:49:49;;;;;;;8.73;7.40;;;16.00;99.90;;;;;;5115277;28;20169;-64
2022/07/24 05:52:15;;;;;;;7.70;6.38;;;16.10;99.90;;;;;;5114807;28;20541;-64
2022/07/24 05:54:41;;;;;;;8.38;6.65;;;16.20;99.90;;;;;;5095657;28;20620;-64
2022/07/24 05:57:07;;;;;;;8.02;6.35;;;16.30;99.90;;;;;;5094225;28;20634;-64
2022/07/24 05:59:33;;;;;;;7.68;6.25;;;16.40;99.90;;;;;;5094081;28;20207;-64
2022/07/24 06:01:59;;;;;;;9.20;6.85;;;16.50;99.90;;;;;;5104700;28;20191;-64
2022/07/24 06:04:25;;;;;;;8.15;6.60;;;16.60;99.90;;;;;;5113691;28;20176;-65
2022/07/24 06:06:51;;;;;;;9.07;6.00;;;16.70;99.90;;;;;;5094553;28;20181;-65
2022/07/24 06:09:17;;;;;;;7.68;6.53;;;16.80;99.90;;;;;;5094015;28;20265;-64
2022/07/24 06:11:43;;;;;;;7.35;5.90;;;16.90;99.90;;;;;;5099906;28;20196;-65
2022/07/24 06:14:08;;;;;;;9.07;6.35;;;16.90;99.90;;;;;;5099846;28;20197;-65
2022/07/24 06:16:34;;;;;;;9.57;6.50;;;17.10;99.90;;;;;;5093712;28;20233;-65
2022/07/24 06:19:01;;;;;;;7.13;6.20;;;17.20;99.90;;;;;;5093709;28;20201;-64
2022/07/24 06:21:27;;;;;;;8.30;6.03;;;17.30;99.90;;;;;;5094084;28;20173;-64
2022/07/24 06:23:54;;;;;;;9.23;6.60;;;17.40;99.90;;;;;;5097892;28;20230;-65
2022/07/24 06:26:19;;;;;;;9.63;6.82;;;17.40;99.90;;;;;;5093736;28;20173;-65
2022/07/24 06:28:45;;;;;;;13.65;6.88;;;17.50;99.90;;;;;;5103417;28;20203;-65
2022/07/24 06:31:11;;;;;;;9.32;6.95;;;17.60;99.90;;;;;;5103417;28;20175;-65
2022/07/24 06:33:36;;;;;;;8.55;6.50;;;17.70;99.90;;;;;;5101835;28;20196;-66
2022/07/24 06:36:02;;;;;;;8.40;6.35;;;17.70;99.90;;;;;;5102373;28;20172;-65
2022/07/24 06:38:28;;;;;;;7.43;5.53;;;17.80;99.90;;;;;;5102238;28;20177;-65
2022/07/24 06:40:54;;;;;;;12.30;7.13;;;18.00;99.90;;;;;;5100780;28;20273;-65
2022/07/24 06:43:20;;;;;;;8.38;5.88;;;18.10;99.90;;;;;;5093448;28;20185;-66
2022/07/24 06:45:46;;;;;;;10.18;7.10;;;18.20;99.90;;;;;;5093339;28;20169;-66
2022/07/24 06:48:12;;;;;;;8.15;6.00;;;18.30;99.90;;;;;;5092211;28;20184;-66
2022/07/24 06:50:37;;;;;;;7.75;6.93;;;18.30;99.90;;;;;;5092419;28;20181;-66
2022/07/24 06:53:03;;;;;;;8.35;5.57;;;18.40;99.90;;;;;;5098270;28;20287;-66
2022/07/24 06:55:29;;;;;;;6.32;5.40;;;18.50;99.90;;;;;;5113813;28;20248;-66
2022/07/24 06:57:55;;;;;;;8.60;6.38;;;18.60;99.90;;;;;;5114042;28;20180;-66
2022/07/24 07:00:20;;;;;;;8.15;6.18;;;18.70;99.90;;;;;;5114008;28;20275;-66
2022/07/24 07:02:46;;;;;;;7.80;5.85;;;18.90;99.90;;;;;;5113558;28;20192;-66
2022/07/24 07:05:12;;;;;;;8.43;6.00;;;19.00;99.90;;;;;;5113803;28;20175;-66
2022/07/24 07:07:38;;;;;;;8.25;6.80;;;19.10;99.90;;;;;;5113698;28;20268;-66
2022/07/24 07:10:05;;;;;;;8.43;5.75;;;19.20;99.90;;;;;;5099699;28;20271;-66
2022/07/24 07:12:31;;;;;;;7.90;6.03;;;19.30;99.90;;;;;;5096457;28;20201;-66
2022/07/24 07:14:59;;;;;;;7.13;5.93;;;19.40;99.90;;;;;;5093622;28;20645;-66
2022/07/24 07:17:25;;;;;;;8.23;6.28;;;19.60;99.90;;;;;;5101876;28;20656;-67
2022/07/24 07:19:51;;;;;;;8.48;6.07;;;19.70;99.90;;;;;;5112559;28;20212;-67
2022/07/24 07:22:16;;;;;;;6.28;5.22;;;19.80;99.90;;;;;;5107034;28;20254;-67
2022/07/24 07:24:42;;;;;;;6.03;5.43;;;19.90;99.90;;;;;;5100876;28;20212;-67
2022/07/24 07:27:08;;;;;;;6.53;5.43;;;20.00;99.90;;;;;;5093315;28;20194;-67
2022/07/24 07:29:34;;;;;;;6.18;5.03;;;20.10;99.90;;;;;;5093492;28;20181;-67
2022/07/24 07:32:00;;;;;;;5.88;5.28;;;20.20;99.90;;;;;;5092760;28;20268;-67
2022/07/24 07:34:26;;;;;;;7.50;5.50;;;20.30;99.90;;;;;;5102977;28;20188;-67
2022/07/24 07:36:52;;;;;;;6.70;5.38;;;20.40;99.90;;;;;;5112369;28;20169;-66
2022/07/24 07:39:18;;;;;;;6.82;5.35;;;20.50;99.90;;;;;;5105242;28;20204;-67
2022/07/24 07:41:44;;;;;;;6.43;5.30;;;20.70;99.90;;;;;;5100885;28;20528;-67
2022/07/24 07:44:10;;;;;;;7.75;5.10;;;20.80;99.90;;;;;;5096307;28;20260;-67
2022/07/24 07:46:36;;;;;;;6.68;5.45;;;21.00;99.90;;;;;;5101817;28;20250;-67
2022/07/24 07:49:01;;;;;;;8.43;5.65;;;21.10;99.90;;;;;;5093279;28;20718;-68
2022/07/24 07:51:27;;;;;;;7.35;5.35;;;21.30;99.90;;;;;;5092753;28;20221;-67
2022/07/24 07:53:53;;;;;;;8.27;5.68;;;21.40;99.90;;;;;;5092789;28;20557;-66
2022/07/24 07:56:20;;;;;;;7.05;5.53;;;21.50;99.90;;;;;;5096563;28;20169;-66
2022/07/24 07:58:45;;;;;;;6.00;5.00;;;21.60;99.90;;;;;;5099124;28;20209;-67
2022/07/24 08:01:11;;;;;;;8.55;5.35;;;21.80;99.90;;;;;;5102080;28;20211;-67
2022/07/24 08:03:37;;;;;;;10.20;5.43;;;22.00;99.90;;;;;;5117149;28;20537;-67
2022/07/24 08:06:04;;;;;;;7.65;4.93;;;22.10;99.90;;;;;;5114180;28;20185;-68
2022/07/24 08:08:30;;;;;;;9.45;5.50;;;22.20;99.90;;;;;;5117348;28;20176;-67
2022/07/24 08:10:56;;;;;;;6.22;4.80;;;22.30;99.90;;;;;;5116754;28;20204;-67
2022/07/24 08:13:22;;;;;;;9.10;4.97;;;22.50;99.90;;;;;;5116573;28;20199;-67
2022/07/24 08:15:47;;;;;;;7.63;5.55;;;22.80;99.90;;;;;;5116624;28;20176;-67
2022/07/24 08:18:13;;;;;;;6.68;4.90;;;23.00;99.90;;;;;;5116100;28;20192;-67
2022/07/24 08:20:39;;;;;;;7.65;4.53;;;23.30;99.90;;;;;;5116418;28;20196;-66
2022/07/24 08:23:05;;;;;;;4.82;4.32;;;23.40;99.90;;;;;;5111131;28;20723;-66
2022/07/24 08:25:30;;;;;;;6.10;4.72;;;23.60;99.90;;;;;;5096045;28;20227;-65
2022/07/24 08:27:56;;;;;;;7.75;4.82;;;23.60;99.90;;;;;;5096107;28;20169;-66
2022/07/24 08:30:23;;;;;;;7.13;4.68;;;23.60;99.90;;;;;;5102081;28;20237;-66
2022/07/24 08:32:49;;;;;;;5.50;4.90;;;23.70;99.90;;;;;;5103202;28;20201;-73
2022/07/24 08:35:16;;;;;;;5.90;4.90;;;23.80;99.90;;;;;;5107433;28;20181;-68
2022/07/24 08:37:42;;;;;;;7.43;4.38;;;23.90;99.90;;;;;;5095874;28;20254;-69
2022/07/24 08:40:11;;;;;;;7.25;4.95;;;24.00;99.90;;;;;;5099986;28;20215;-70
2022/07/24 08:42:38;;;;;;;5.85;4.55;;;24.20;99.90;;;;;;5117954;28;20192;-67
2022/07/24 08:45:05;;;;;;;5.90;4.97;;;24.20;99.90;;;;;;5118960;28;20251;-66
2022/07/24 08:47:34;;;;;;;6.50;4.65;;;24.40;99.90;;;;;;5117441;28;20179;-66
2022/07/24 08:50:02;;;;;;;5.80;4.97;;;24.40;99.90;;;;;;5120784;28;20176;-66
2022/07/24 08:52:28;;;;;;;9.32;5.45;;;24.50;99.90;;;;;;5119522;28;20216;-67
2022/07/24 08:54:54;;;;;;;14.63;5.55;;;24.60;99.90;;;;;;5096116;28;20656;-66
2022/07/24 08:57:20;;;;;;;7.88;4.70;;;24.70;99.90;;;;;;5094202;28;20256;-67
2022/07/24 08:59:46;;;;;;;7.47;5.30;;;24.90;99.90;;;;;;5095278;28;20293;-66
2022/07/24 09:02:12;;;;;;;6.72;5.45;;;25.00;99.90;;;;;;5095660;28;20217;-66
2022/07/24 09:04:43;;;;;;;8.10;4.68;;;25.10;99.90;;;;;;5095325;28;20180;-66
2022/07/24 09:07:15;;;;;;;7.15;4.70;;;25.20;99.90;;;;;;5096123;28;20162;-67
2022/07/24 09:09:42;;;;;;;6.50;4.57;;;25.20;99.90;;;;;;5095727;28;20180;-67
2022/07/24 09:12:12;;;;;;;7.57;5.30;;;25.30;99.90;;;;;;5093802;28;20197;-66
2022/07/24 09:14:41;;;;;;;6.40;5.10;;;25.40;99.90;;;;;;5097333;28;20165;-66
2022/07/24 09:17:16;;;;;;;8.70;5.32;;;25.50;99.90;;;;;;5095120;28;20165;-69
2022/07/24 09:19:47;;;;;;;6.43;4.63;;;25.70;99.90;;;;;;5095051;28;20200;-68
2022/07/24 09:22:34;;;;;;;7.03;5.47;;;25.90;99.90;;;;;;5095092;28;20193;-68
2022/07/24 09:25:28;;;;;;;9.00;4.97;;;26.00;99.90;;;;;;5095306;28;20173;-68
2022/07/24 09:27:55;;;;;;;6.78;5.63;;;26.20;99.90;;;;;;5095544;28;20196;-68
2022/07/24 09:30:44;;;;;;;6.55;5.00;;;26.30;99.90;;;;;;5095178;28;20181;-67
2022/07/24 09:33:12;;;;;;;6.70;5.05;;;26.30;99.90;;;;;;5089007;28;20678;-67
2022/07/24 09:35:50;;;;;;;6.47;5.15;;;26.40;99.90;;;;;;5093879;28;20608;-66
2022/07/24 09:38:25;;;;;;;6.38;5.05;;;26.50;99.90;;;;;;5094968;28;20157;-64
2022/07/24 09:40:54;;;;;;;7.90;5.53;;;26.50;99.90;;;;;;5094468;28;20196;-65
2022/07/24 09:43:25;;;;;;;8.60;5.07;;;26.50;99.90;;;;;;5094903;28;20188;-66
2022/07/24 09:46:10;;;;;;;6.53;5.25;;;26.50;99.90;;;;;;5116207;27;20197;-69
2022/07/24 09:48:39;;;;;;;6.13;4.72;;;26.50;99.90;;;;;;5114723;28;20236;-69
2022/07/24 09:51:10;;;;;;;7.30;4.65;;;26.60;99.90;;;;;;5114817;28;20207;-69
2022/07/24 09:53:36;;;;;;;7.35;5.28;;;26.70;99.90;;;;;;5104951;28;20204;-67
2022/07/24 09:56:07;;;;;;;7.45;4.75;;;26.80;99.90;;;;;;5100071;28;20553;-67
2022/07/24 09:58:35;;;;;;;7.15;5.13;;;26.80;99.90;;;;;;5107203;28;20568;-67
2022/07/24 10:01:03;;;;;;;9.00;5.45;;;26.90;99.90;;;;;;5097471;28;20211;-68
2022/07/24 10:03:38;;;;;;;8.18;5.15;;;26.90;99.90;;;;;;5095894;28;20193;-66
2022/07/24 10:06:06;;;;;;;6.07;4.60;;;27.00;99.90;;;;;;5101279;28;20164;-67
2022/07/24 10:08:34;;;;;;;6.10;5.18;;;27.10;99.90;;;;;;5095077;28;20161;-66
2022/07/24 10:11:00;;;;;;;6.80;5.38;;;27.10;99.90;;;;;;5094490;28;20177;-68
2022/07/24 10:13:30;;;;;;;7.53;5.53;;;27.10;99.90;;;;;;5096023;28;20587;-66
2022/07/24 10:16:07;;;;;;;6.10;5.28;;;27.10;99.90;;;;;;5094640;28;20184;-65
2022/07/24 10:18:51;;;;;;;5.93;4.97;;;27.10;99.90;;;;;;5094603;28;20189;-68
2022/07/24 10:21:30;;;;;;;8.40;5.43;;;27.10;99.90;;;;;;5094759;28;20630;-64
2022/07/24 10:24:02;;;;;;;5.57;4.60;;;27.20;99.90;;;;;;5092490;28;20227;-65
2022/07/24 10:26:49;;;;;;;6.90;4.90;;;27.30;99.90;;;;;;5093849;28;20162;-68
2022/07/24 10:29:21;;;;;;;6.35;5.07;;;27.30;99.90;;;;;;5092623;28;20172;-68
2022/07/24 10:31:52;;;;;;;6.32;4.93;;;27.30;99.90;;;;;;5092240;28;20505;-68
2022/07/24 10:34:24;;;;;;;8.52;5.35;;;27.40;99.90;;;;;;5092469;28;20176;-69
2022/07/24 10:37:14;;;;;;;9.85;5.57;;;27.40;99.90;;;;;;5092988;28;20170;-68
2022/07/24 10:40:08;;;;;;;7.85;4.95;;;27.40;99.90;;;;;;5102593;28;20606;-68
2022/07/24 10:42:53;;;;;;;6.45;5.03;;;27.40;99.90;;;;;;5093969;28;20192;-68
2022/07/24 10:45:19;;;;;;;7.90;4.78;;;27.40;99.90;;;;;;5097836;28;20184;-68
2022/07/24 10:47:46;;;;;;;7.88;5.65;;;27.60;99.90;;;;;;5101670;28;20188;-68
2022/07/24 10:50:14;;;;;;;6.07;5.28;;;27.50;99.90;;;;;;5093626;28;20675;-69
2022/07/24 10:52:41;;;;;;;6.22;5.10;;;27.50;99.90;;;;;;5093364;28;20208;-68
2022/07/24 10:55:19;;;;;;;6.70;5.35;;;27.60;99.90;;;;;;5093512;28;20173;-68
2022/07/24 10:57:47;;;;;;;7.63;5.30;;;27.60;99.90;;;;;;5093473;28;20176;-70
2022/07/24 11:00:22;;;;;;;7.95;5.30;;;27.70;99.90;;;;;;5093361;28;20192;-70
2022/07/24 11:03:05;;;;;;;6.75;4.60;;;27.80;99.90;;;;;;5093156;28;20524;-70
2022/07/24 11:05:36;;;;;;;6.60;5.10;;;28.00;99.90;;;;;;5094291;28;20501;-70
2022/07/24 11:08:17;;;;;;;6.47;5.32;;;27.90;99.90;;;;;;5092199;28;20215;-71
2022/07/24 11:10:52;;;;;;;6.30;5.03;;;28.00;99.90;;;;;;5092059;28;20177;-71
2022/07/24 11:13:33;;;;;;;8.18;5.25;;;28.00;99.90;;;;;;5093403;28;20199;-71
2022/07/24 11:16:11;;;;;;;5.32;4.63;;;28.20;99.90;;;;;;5101742;28;20222;-71
2022/07/24 11:18:49;;;;;;;8.45;5.32;;;28.40;99.90;;;;;;5101017;28;20537;-71
2022/07/24 11:21:48;;;;;;;6.75;4.72;;;28.50;99.90;;;;;;5106467;28;20200;-65
2022/07/24 11:24:13;;;;;;;5.47;4.18;;;28.60;99.90;;;;;;5075444;28;20254;-67
2022/07/24 11:26:42;;;;;;;5.80;4.57;;;28.70;99.90;;;;;;5093220;28;20170;-67
2022/07/24 11:29:28;;;;;;;5.72;4.90;;;28.80;99.90;;;;;;5095403;28;20181;-68
2022/07/24 11:31:59;;;;;;;5.95;4.53;;;28.90;99.90;;;;;;5097145;28;20164;-66
2022/07/24 11:34:26;;;;;;;5.85;4.55;;;28.80;99.90;;;;;;5097337;28;20495;-66
2022/07/24 11:36:54;;;;;;;5.72;4.95;;;28.80;99.90;;;;;;5097121;28;20197;-67
2022/07/24 11:39:25;;;;;;;7.40;5.00;;;28.80;99.90;;;;;;5097298;28;20584;-66
2022/07/24 11:41:54;;;;;;;7.47;4.65;;;28.90;99.90;;;;;;5097963;28;20153;-64
2022/07/24 11:44:25;;;;;;;6.40;5.13;;;29.10;99.90;;;;;;5097626;28;20633;-65
2022/07/24 11:46:52;;;;;;;6.75;4.60;;;29.30;99.90;;;;;;5096620;28;20173;-65
2022/07/24 11:49:17;;;;;;;8.32;5.30;;;29.30;99.90;;;;;;5096817;28;20173;-67
2022/07/24 11:51:50;;;;;;;5.13;4.60;;;29.30;99.90;;;;;;5096670;28;20214;-66
2022/07/24 11:54:27;;;;;;;7.20;5.05;;;29.30;99.90;;;;;;5096599;28;20726;-66
2022/07/24 11:56:54;;;;;;;5.60;5.00;;;29.30;99.90;;;;;;5096910;28;20169;-66
2022/07/24 11:59:28;;;;;;;5.65;4.88;;;29.30;99.90;;;;;;5096511;28;20200;-65
2022/07/24 12:02:09;;;;;;;5.97;5.00;;;29.20;99.90;;;;;;5095508;28;20510;-65
2022/07/24 12:04:38;;;;;;;6.60;4.85;;;29.30;99.90;;;;;;5096771;28;20234;-65
2022/07/24 12:07:09;;;;;;;7.57;4.85;;;29.50;99.90;;;;;;5095329;28;20173;-66
2022/07/24 12:09:45;;;;;;;8.93;5.00;;;29.40;99.90;;;;;;5095491;28;20182;-68
2022/07/24 12:12:42;;;;;;;6.15;4.68;;;29.70;99.90;;;;;;5096538;28;20197;-73
2022/07/24 12:15:11;;;;;;;6.07;4.88;;;29.80;99.90;;;;;;5088141;28;20263;-72
2022/07/24 12:18:01;;;;;;;9.90;5.07;;;30.10;99.90;;;;;;5097760;28;20226;-71
2022/07/24 12:20:39;;;;;;;5.93;4.75;;;30.20;99.90;;;;;;5096065;28;20193;-71
2022/07/24 12:23:08;;;;;;;6.45;4.53;;;30.30;99.90;;;;;;5096260;28;20200;-70
2022/07/24 12:25:34;;;;;;;5.07;4.05;;;30.40;99.90;;;;;;5097404;28;20172;-71
2022/07/24 12:28:12;;;;;;;7.28;5.05;;;30.50;99.90;;;;;;5105154;28;20181;-71
2022/07/24 12:30:45;;;;;;;6.85;5.25;;;30.60;99.90;;;;;;5096228;28;20165;-67
2022/07/24 12:33:13;;;;;;;6.25;5.00;;;30.60;99.90;;;;;;5094307;28;20197;-66
2022/07/24 12:36:00;;;;;;;9.27;4.70;;;30.50;99.90;;;;;;5095742;28;20708;-67
2022/07/24 12:38:37;;;;;;;9.88;4.63;;;30.90;99.90;;;;;;5095533;28;20157;-66
2022/07/24 12:41:15;;;;;;;5.10;4.60;;;30.80;99.90;;;;;;5093251;28;20669;-66
2022/07/24 12:43:49;;;;;;;5.47;4.65;;;30.70;99.90;;;;;;5093135;28;20614;-66
2022/07/24 12:46:15;;;;;;;7.95;4.70;;;30.70;99.90;;;;;;5094361;28;20192;-67
2022/07/24 12:49:05;;;;;;;5.88;4.90;;;30.90;99.90;;;;;;5094269;28;20170;-66
2022/07/24 12:52:03;;;;;;;8.07;5.25;;;31.20;99.90;;;;;;5094337;28;20157;-67